X  Close Metar Aviation Weather Data     CYYC Calgary International Airport
Temperature
-13°C Temperature
-16°C Dewpoint
78% Humidity



Wind
45 KM/H
28 MPH
13 M/S
24 KTS



360°
N
Current Conditions

Light Snow, Blowing Snow Light Snow, Blowing Snow
Pressure 1011.52 (hPa) - 29.87 (inHg)
Visibility 2.5 (mile) - 4 (km)
Airport
Airport-code CYYC

Location: Calgary International Airport
Distance: 4 (km)

Metar:
CYYC 180710Z 36024G38KT 2 1/2SM -SN BLSN OVC029 M13/M16 A2987 RMK SC8 SLP166

Time: 18-01-2022 00:10 MST